sensor_id;sensor_type;location;lat;lon;timestamp;temperature;humidity
26408;DHT22;14583;43.604;1.364;2023-05-10T00:00:58;14.30;99.90
26408;DHT22;14583;43.604;1.364;2023-05-10T00:03:23;14.40;99.90
26408;DHT22;14583;43.604;1.364;2023-05-10T00:05:49;14.40;99.90
26408;DHT22;14583;43.604;1.364;2023-05-10T00:08:15;14.40;99.90
26408;DHT22;14583;43.604;1.364;2023-05-10T00:10:41;14.30;99.90
26408;DHT22;14583;43.604;1.364;2023-05-10T00:13:07;14.30;99.90
26408;DHT22;14583;43.604;1.364;2023-05-10T00:15:32;14.30;99.90
26408;DHT22;14583;43.604;1.364;2023-05-10T00:18:00;14.30;99.90
26408;DHT22;14583;43.604;1.364;2023-05-10T00:20:26;14.30;99.90
26408;DHT22;14583;43.604;1.364;2023-05-10T00:22:52;14.20;99.90
26408;DHT22;14583;43.604;1.364;2023-05-10T00:25:17;14.10;99.90
26408;DHT22;14583;43.604;1.364;2023-05-10T00:27:43;14.20;99.90
26408;DHT22;14583;43.604;1.364;2023-05-10T00:30:09;14.20;99.90
26408;DHT22;14583;43.604;1.364;2023-05-10T00:32:35;14.30;99.90
26408;DHT22;14583;43.604;1.364;2023-05-10T00:35:01;14.20;99.90
26408;DHT22;14583;43.604;1.364;2023-05-10T00:37:26;14.30;99.90
26408;DHT22;14583;43.604;1.364;2023-05-10T00:39:52;14.20;99.90
26408;DHT22;14583;43.604;1.364;2023-05-10T00:42:18;14.20;99.90
26408;DHT22;14583;43.604;1.364;2023-05-10T00:44:44;14.20;99.90
26408;DHT22;14583;43.604;1.364;2023-05-10T00:47:10;14.10;99.90
26408;DHT22;14583;43.604;1.364;2023-05-10T00:49:37;14.10;99.90
26408;DHT22;14583;43.604;1.364;2023-05-10T00:52:03;14.10;99.90
26408;DHT22;14583;43.604;1.364;2023-05-10T00:54:29;14.20;99.90
26408;DHT22;14583;43.604;1.364;2023-05-10T00:56:55;14.30;99.90
26408;DHT22;14583;43.604;1.364;2023-05-10T00:59:22;14.30;99.90
26408;DHT22;14583;43.604;1.364;2023-05-10T01:01:48;14.40;99.90
26408;DHT22;14583;43.604;1.364;2023-05-10T01:04:14;14.30;99.90
26408;DHT22;14583;43.604;1.364;2023-05-10T01:06:41;14.20;99.90
26408;DHT22;14583;43.604;1.364;2023-05-10T01:09:07;14.20;99.90
26408;DHT22;14583;43.604;1.364;2023-05-10T01:11:37;14.30;99.90
26408;DHT22;14583;43.604;1.364;2023-05-10T01:14:03;14.40;99.90
26408;DHT22;14583;43.604;1.364;2023-05-10T01:16:33;14.20;99.90
26408;DHT22;14583;43.604;1.364;2023-05-10T01:19:00;14.30;99.90
26408;DHT22;14583;43.604;1.364;2023-05-10T01:21:38;14.30;99.90
26408;DHT22;14583;43.604;1.364;2023-05-10T01:27:20;14.30;99.90
26408;DHT22;14583;43.604;1.364;2023-05-10T01:38:29;14.20;99.90
26408;DHT22;14583;43.604;1.364;2023-05-10T01:46:17;13.80;99.90
26408;DHT22;14583;43.604;1.364;2023-05-10T01:48:54;13.60;99.90
26408;DHT22;14583;43.604;1.364;2023-05-10T01:51:23;13.80;99.90
26408;DHT22;14583;43.604;1.364;2023-05-10T01:53:53;13.80;99.90
26408;DHT22;14583;43.604;1.364;2023-05-10T01:56:22;14.00;99.90
26408;DHT22;14583;43.604;1.364;2023-05-10T01:58:49;14.10;99.90
26408;DHT22;14583;43.604;1.364;2023-05-10T02:01:16;14.10;99.90
26408;DHT22;14583;43.604;1.364;2023-05-10T02:03:44;14.10;99.90
26408;DHT22;14583;43.604;1.364;2023-05-10T02:06:10;14.20;99.90
26408;DHT22;14583;43.604;1.364;2023-05-10T02:08:39;14.20;99.90
26408;DHT22;14583;43.604;1.364;2023-05-10T02:11:05;14.10;99.90
26408;DHT22;14583;43.604;1.364;2023-05-10T02:13:34;14.10;99.90
26408;DHT22;14583;43.604;1.364;2023-05-10T02:16:01;14.10;99.90
26408;DHT22;14583;43.604;1.364;2023-05-10T02:18:28;14.00;99.90
26408;DHT22;14583;43.604;1.364;2023-05-10T02:20:55;13.90;99.90
26408;DHT22;14583;43.604;1.364;2023-05-10T02:23:21;13.80;99.90
26408;DHT22;14583;43.604;1.364;2023-05-10T02:25:49;14.00;99.90
26408;DHT22;14583;43.604;1.364;2023-05-10T02:28:17;14.00;99.90
26408;DHT22;14583;43.604;1.364;2023-05-10T02:30:44;13.90;99.90
26408;DHT22;14583;43.604;1.364;2023-05-10T02:33:10;13.90;99.90
26408;DHT22;14583;43.604;1.364;2023-05-10T02:35:38;14.00;99.90
26408;DHT22;14583;43.604;1.364;2023-05-10T02:38:04;13.80;99.90
26408;DHT22;14583;43.604;1.364;2023-05-10T02:40:30;13.80;99.90
26408;DHT22;14583;43.604;1.364;2023-05-10T02:42:57;13.80;99.90
26408;DHT22;14583;43.604;1.364;2023-05-10T02:45:27;13.90;99.90
26408;DHT22;14583;43.604;1.364;2023-05-10T02:47:54;14.10;99.90
26408;DHT22;14583;43.604;1.364;2023-05-10T02:50:21;14.00;99.90
26408;DHT22;14583;43.604;1.364;2023-05-10T02:52:50;13.80;99.90
26408;DHT22;14583;43.604;1.364;2023-05-10T02:55:22;13.90;99.90
26408;DHT22;14583;43.604;1.364;2023-05-10T02:57:59;14.00;99.90
26408;DHT22;14583;43.604;1.364;2023-05-10T03:00:26;13.80;99.90
26408;DHT22;14583;43.604;1.364;2023-05-10T03:02:52;13.80;99.90
26408;DHT22;14583;43.604;1.364;2023-05-10T03:05:18;13.80;99.90
26408;DHT22;14583;43.604;1.364;2023-05-10T03:07:45;13.80;99.90
26408;DHT22;14583;43.604;1.364;2023-05-10T03:10:11;13.70;99.90
26408;DHT22;14583;43.604;1.364;2023-05-10T03:15:47;13.60;99.90
26408;DHT22;14583;43.604;1.364;2023-05-10T03:18:21;13.60;99.90
26408;DHT22;14583;43.604;1.364;2023-05-10T03:20:49;13.70;99.90
26408;DHT22;14583;43.604;1.364;2023-05-10T03:23:46;13.70;99.90
26408;DHT22;14583;43.604;1.364;2023-05-10T03:26:17;13.80;99.90
26408;DHT22;14583;43.604;1.364;2023-05-10T03:28:43;13.80;99.90
26408;DHT22;14583;43.604;1.364;2023-05-10T03:31:09;13.80;99.90
26408;DHT22;14583;43.604;1.364;2023-05-10T03:33:35;13.80;99.90
26408;DHT22;14583;43.604;1.364;2023-05-10T03:36:01;13.80;99.90
26408;DHT22;14583;43.604;1.364;2023-05-10T03:38:26;13.70;99.90
26408;DHT22;14583;43.604;1.364;2023-05-10T03:40:52;13.60;99.90
26408;DHT22;14583;43.604;1.364;2023-05-10T03:43:18;13.60;99.90
26408;DHT22;14583;43.604;1.364;2023-05-10T03:45:43;13.60;99.90
26408;DHT22;14583;43.604;1.364;2023-05-10T03:48:09;13.60;99.90
26408;DHT22;14583;43.604;1.364;2023-05-10T03:50:34;13.60;99.90
26408;DHT22;14583;43.604;1.364;2023-05-10T03:53:00;13.50;99.90
26408;DHT22;14583;43.604;1.364;2023-05-10T03:55:26;13.50;99.90
26408;DHT22;14583;43.604;1.364;2023-05-10T03:57:52;13.40;99.90
26408;DHT22;14583;43.604;1.364;2023-05-10T04:00:19;13.40;99.90
26408;DHT22;14583;43.604;1.364;2023-05-10T04:02:45;13.40;99.90
26408;DHT22;14583;43.604;1.364;2023-05-10T04:05:10;13.40;99.90
26408;DHT22;14583;43.604;1.364;2023-05-10T04:07:36;13.40;99.90
26408;DHT22;14583;43.604;1.364;2023-05-10T04:10:02;13.40;99.90
26408;DHT22;14583;43.604;1.364;2023-05-10T04:12:27;13.50;99.90
26408;DHT22;14583;43.604;1.364;2023-05-10T04:14:53;13.40;99.90
26408;DHT22;14583;43.604;1.364;2023-05-10T04:17:18;13.50;99.90
26408;DHT22;14583;43.604;1.364;2023-05-10T04:19:44;13.50;99.90
26408;DHT22;14583;43.604;1.364;2023-05-10T04:22:10;13.50;99.90
26408;DHT22;14583;43.604;1.364;2023-05-10T04:24:36;13.60;99.90
26408;DHT22;14583;43.604;1.364;2023-05-10T04:27:01;13.50;99.90
26408;DHT22;14583;43.604;1.364;2023-05-10T04:29:27;13.50;99.90
26408;DHT22;14583;43.604;1.364;2023-05-10T04:31:53;13.60;99.90
26408;DHT22;14583;43.604;1.364;2023-05-10T04:34:20;13.50;99.90
26408;DHT22;14583;43.604;1.364;2023-05-10T04:36:49;13.50;99.90
26408;DHT22;14583;43.604;1.364;2023-05-10T04:39:15;13.40;99.90
26408;DHT22;14583;43.604;1.364;2023-05-10T04:41:41;13.40;99.90
26408;DHT22;14583;43.604;1.364;2023-05-10T04:44:06;13.50;99.90
26408;DHT22;14583;43.604;1.364;2023-05-10T04:46:32;13.40;99.90
26408;DHT22;14583;43.604;1.364;2023-05-10T04:48:58;13.60;99.90
26408;DHT22;14583;43.604;1.364;2023-05-10T04:51:23;13.60;99.90
26408;DHT22;14583;43.604;1.364;2023-05-10T04:53:49;13.50;99.90
26408;DHT22;14583;43.604;1.364;2023-05-10T04:56:15;13.30;99.90
26408;DHT22;14583;43.604;1.364;2023-05-10T04:58:41;13.40;99.90
26408;DHT22;14583;43.604;1.364;2023-05-10T05:01:07;13.40;99.90
26408;DHT22;14583;43.604;1.364;2023-05-10T05:03:33;13.40;99.90
26408;DHT22;14583;43.604;1.364;2023-05-10T05:05:59;13.30;99.90
26408;DHT22;14583;43.604;1.364;2023-05-10T05:08:25;13.30;99.90
26408;DHT22;14583;43.604;1.364;2023-05-10T05:10:51;13.40;99.90
26408;DHT22;14583;43.604;1.364;2023-05-10T05:13:17;13.40;99.90
26408;DHT22;14583;43.604;1.364;2023-05-10T05:15:42;13.50;99.90
26408;DHT22;14583;43.604;1.364;2023-05-10T05:18:08;13.40;99.90
26408;DHT22;14583;43.604;1.364;2023-05-10T05:20:34;13.40;99.90
26408;DHT22;14583;43.604;1.364;2023-05-10T05:23:00;13.30;99.90
26408;DHT22;14583;43.604;1.364;2023-05-10T05:25:26;13.30;99.90
26408;DHT22;14583;43.604;1.364;2023-05-10T05:27:51;13.20;99.90
26408;DHT22;14583;43.604;1.364;2023-05-10T05:30:17;13.30;99.90
26408;DHT22;14583;43.604;1.364;2023-05-10T05:32:43;13.50;99.90
26408;DHT22;14583;43.604;1.364;2023-05-10T05:35:09;13.30;99.90
26408;DHT22;14583;43.604;1.364;2023-05-10T05:37:35;13.20;99.90
26408;DHT22;14583;43.604;1.364;2023-05-10T05:40:01;13.30;99.90
26408;DHT22;14583;43.604;1.364;2023-05-10T05:42:27;13.40;99.90
26408;DHT22;14583;43.604;1.364;2023-05-10T05:44:52;13.30;99.90
26408;DHT22;14583;43.604;1.364;2023-05-10T05:47:18;13.50;99.90
26408;DHT22;14583;43.604;1.364;2023-05-10T05:49:43;13.40;99.90
26408;DHT22;14583;43.604;1.364;2023-05-10T05:52:12;13.50;99.90
26408;DHT22;14583;43.604;1.364;2023-05-10T05:54:38;13.30;99.90
26408;DHT22;14583;43.604;1.364;2023-05-10T05:57:04;13.20;99.90
26408;DHT22;14583;43.604;1.364;2023-05-10T05:59:29;13.40;99.90
26408;DHT22;14583;43.604;1.364;2023-05-10T06:01:55;13.40;99.90
26408;DHT22;14583;43.604;1.364;2023-05-10T06:04:21;13.60;99.90
26408;DHT22;14583;43.604;1.364;2023-05-10T06:06:46;13.60;99.90
26408;DHT22;14583;43.604;1.364;2023-05-10T06:09:12;13.70;99.90
26408;DHT22;14583;43.604;1.364;2023-05-10T06:11:38;13.60;99.90
26408;DHT22;14583;43.604;1.364;2023-05-10T06:14:04;13.60;99.90
26408;DHT22;14583;43.604;1.364;2023-05-10T06:16:33;13.60;99.90
26408;DHT22;14583;43.604;1.364;2023-05-10T06:18:59;13.70;99.90
26408;DHT22;14583;43.604;1.364;2023-05-10T06:21:24;13.50;99.90
26408;DHT22;14583;43.604;1.364;2023-05-10T06:23:50;13.60;99.90
26408;DHT22;14583;43.604;1.364;2023-05-10T06:26:16;13.60;99.90
26408;DHT22;14583;43.604;1.364;2023-05-10T06:28:42;13.50;99.90
26408;DHT22;14583;43.604;1.364;2023-05-10T06:31:08;13.50;99.90
26408;DHT22;14583;43.604;1.364;2023-05-10T06:33:33;13.60;99.90
26408;DHT22;14583;43.604;1.364;2023-05-10T06:35:59;13.80;99.90
26408;DHT22;14583;43.604;1.364;2023-05-10T06:38:25;13.90;99.90
26408;DHT22;14583;43.604;1.364;2023-05-10T06:40:51;13.80;99.90
26408;DHT22;14583;43.604;1.364;2023-05-10T06:43:17;13.80;99.90
26408;DHT22;14583;43.604;1.364;2023-05-10T06:45:42;14.00;99.90
26408;DHT22;14583;43.604;1.364;2023-05-10T06:48:08;14.10;99.90
26408;DHT22;14583;43.604;1.364;2023-05-10T06:50:34;14.10;99.90
26408;DHT22;14583;43.604;1.364;2023-05-10T06:53:00;14.10;99.90
26408;DHT22;14583;43.604;1.364;2023-05-10T06:55:27;14.10;99.90
26408;DHT22;14583;43.604;1.364;2023-05-10T06:57:53;14.10;99.90
26408;DHT22;14583;43.604;1.364;2023-05-10T07:00:19;14.00;99.90
26408;DHT22;14583;43.604;1.364;2023-05-10T07:02:45;14.20;99.90
26408;DHT22;14583;43.604;1.364;2023-05-10T07:05:11;14.30;99.90
26408;DHT22;14583;43.604;1.364;2023-05-10T07:07:37;14.40;99.90
26408;DHT22;14583;43.604;1.364;2023-05-10T07:10:03;14.40;99.90
26408;DHT22;14583;43.604;1.364;2023-05-10T07:12:29;14.40;99.90
26408;DHT22;14583;43.604;1.364;2023-05-10T07:14:55;14.50;99.90
26408;DHT22;14583;43.604;1.364;2023-05-10T07:17:20;14.60;99.90
26408;DHT22;14583;43.604;1.364;2023-05-10T07:19:46;14.70;99.90
26408;DHT22;14583;43.604;1.364;2023-05-10T07:22:12;14.60;99.90
26408;DHT22;14583;43.604;1.364;2023-05-10T07:24:38;14.60;99.90
26408;DHT22;14583;43.604;1.364;2023-05-10T07:27:04;14.80;99.90
26408;DHT22;14583;43.604;1.364;2023-05-10T07:29:30;14.80;99.90
26408;DHT22;14583;43.604;1.364;2023-05-10T07:31:55;14.80;99.90
26408;DHT22;14583;43.604;1.364;2023-05-10T07:34:21;14.80;99.90
26408;DHT22;14583;43.604;1.364;2023-05-10T07:36:47;14.80;99.90
26408;DHT22;14583;43.604;1.364;2023-05-10T07:39:13;14.90;99.90
26408;DHT22;14583;43.604;1.364;2023-05-10T07:41:38;14.80;99.90
26408;DHT22;14583;43.604;1.364;2023-05-10T07:44:05;15.00;99.90
26408;DHT22;14583;43.604;1.364;2023-05-10T07:46:31;15.20;99.90
26408;DHT22;14583;43.604;1.364;2023-05-10T07:48:56;15.20;99.90
26408;DHT22;14583;43.604;1.364;2023-05-10T07:51:22;15.10;99.90
26408;DHT22;14583;43.604;1.364;2023-05-10T07:53:48;15.00;99.90
26408;DHT22;14583;43.604;1.364;2023-05-10T07:56:26;15.00;99.90
26408;DHT22;14583;43.604;1.364;2023-05-10T07:58:55;15.10;99.90
26408;DHT22;14583;43.604;1.364;2023-05-10T08:01:21;15.10;99.90
26408;DHT22;14583;43.604;1.364;2023-05-10T08:03:47;15.20;99.90
26408;DHT22;14583;43.604;1.364;2023-05-10T08:06:13;15.30;99.90
26408;DHT22;14583;43.604;1.364;2023-05-10T08:08:39;15.40;99.90
26408;DHT22;14583;43.604;1.364;2023-05-10T08:11:05;15.50;99.90
26408;DHT22;14583;43.604;1.364;2023-05-10T08:13:30;15.30;99.90
26408;DHT22;14583;43.604;1.364;2023-05-10T08:15:56;15.40;99.90
26408;DHT22;14583;43.604;1.364;2023-05-10T08:18:22;15.50;99.90
26408;DHT22;14583;43.604;1.364;2023-05-10T08:20:48;15.50;99.90
26408;DHT22;14583;43.604;1.364;2023-05-10T08:23:14;15.50;99.90
26408;DHT22;14583;43.604;1.364;2023-05-10T08:25:39;15.30;99.90
26408;DHT22;14583;43.604;1.364;2023-05-10T08:28:05;15.30;99.90
26408;DHT22;14583;43.604;1.364;2023-05-10T08:30:31;15.30;99.90
26408;DHT22;14583;43.604;1.364;2023-05-10T08:32:57;15.40;99.90
26408;DHT22;14583;43.604;1.364;2023-05-10T08:35:22;15.50;99.90
26408;DHT22;14583;43.604;1.364;2023-05-10T08:37:48;15.50;99.90
26408;DHT22;14583;43.604;1.364;2023-05-10T08:40:14;15.50;99.90
26408;DHT22;14583;43.604;1.364;2023-05-10T08:42:45;15.40;99.90
26408;DHT22;14583;43.604;1.364;2023-05-10T08:45:13;15.80;99.90
26408;DHT22;14583;43.604;1.364;2023-05-10T08:47:41;15.90;99.90
26408;DHT22;14583;43.604;1.364;2023-05-10T08:50:07;15.80;99.90
26408;DHT22;14583;43.604;1.364;2023-05-10T08:52:37;16.00;99.90
26408;DHT22;14583;43.604;1.364;2023-05-10T08:55:04;15.80;99.90
26408;DHT22;14583;43.604;1.364;2023-05-10T08:57:30;15.80;99.90
26408;DHT22;14583;43.604;1.364;2023-05-10T08:59:56;15.80;99.90
26408;DHT22;14583;43.604;1.364;2023-05-10T09:02:22;15.80;99.90
26408;DHT22;14583;43.604;1.364;2023-05-10T09:04:48;16.00;99.90
26408;DHT22;14583;43.604;1.364;2023-05-10T09:07:14;16.00;99.90
26408;DHT22;14583;43.604;1.364;2023-05-10T09:09:40;16.20;99.90
26408;DHT22;14583;43.604;1.364;2023-05-10T09:12:05;16.20;99.90
26408;DHT22;14583;43.604;1.364;2023-05-10T09:14:34;16.30;99.90
26408;DHT22;14583;43.604;1.364;2023-05-10T09:17:00;16.50;99.90
26408;DHT22;14583;43.604;1.364;2023-05-10T09:19:27;16.30;99.90
26408;DHT22;14583;43.604;1.364;2023-05-10T09:21:53;16.30;99.90
26408;DHT22;14583;43.604;1.364;2023-05-10T09:24:19;16.00;99.90
26408;DHT22;14583;43.604;1.364;2023-05-10T09:26:48;15.90;99.90
26408;DHT22;14583;43.604;1.364;2023-05-10T09:29:14;15.80;99.90
26408;DHT22;14583;43.604;1.364;2023-05-10T09:31:48;15.80;99.90
26408;DHT22;14583;43.604;1.364;2023-05-10T09:34:20;15.90;99.90
26408;DHT22;14583;43.604;1.364;2023-05-10T09:37:00;16.10;99.90
26408;DHT22;14583;43.604;1.364;2023-05-10T09:39:30;16.20;99.90
26408;DHT22;14583;43.604;1.364;2023-05-10T09:41:55;16.40;99.90
26408;DHT22;14583;43.604;1.364;2023-05-10T09:44:22;16.50;99.90
26408;DHT22;14583;43.604;1.364;2023-05-10T09:46:50;16.50;99.90
26408;DHT22;14583;43.604;1.364;2023-05-10T09:49:18;16.50;99.90
26408;DHT22;14583;43.604;1.364;2023-05-10T09:51:45;16.60;99.90
26408;DHT22;14583;43.604;1.364;2023-05-10T09:54:11;16.60;99.90
26408;DHT22;14583;43.604;1.364;2023-05-10T09:56:38;16.50;99.90
26408;DHT22;14583;43.604;1.364;2023-05-10T09:59:06;16.20;99.90
26408;DHT22;14583;43.604;1.364;2023-05-10T10:01:33;16.30;99.90
26408;DHT22;14583;43.604;1.364;2023-05-10T10:03:59;16.30;99.90
26408;DHT22;14583;43.604;1.364;2023-05-10T10:06:28;16.30;99.90
26408;DHT22;14583;43.604;1.364;2023-05-10T10:08:54;16.30;99.90
26408;DHT22;14583;43.604;1.364;2023-05-10T10:11:20;16.40;99.90
26408;DHT22;14583;43.604;1.364;2023-05-10T10:13:46;16.20;99.90
26408;DHT22;14583;43.604;1.364;2023-05-10T10:16:11;16.20;99.90
26408;DHT22;14583;43.604;1.364;2023-05-10T10:18:37;16.10;99.90
26408;DHT22;14583;43.604;1.364;2023-05-10T10:21:07;16.10;99.90
26408;DHT22;14583;43.604;1.364;2023-05-10T10:23:35;16.30;99.90
26408;DHT22;14583;43.604;1.364;2023-05-10T10:26:02;16.40;99.90
26408;DHT22;14583;43.604;1.364;2023-05-10T10:31:02;16.40;99.90
26408;DHT22;14583;43.604;1.364;2023-05-10T10:33:51;16.40;99.90
26408;DHT22;14583;43.604;1.364;2023-05-10T10:36:20;16.50;99.90
26408;DHT22;14583;43.604;1.364;2023-05-10T10:41:31;16.80;99.90
26408;DHT22;14583;43.604;1.364;2023-05-10T10:52:30;17.10;99.90
26408;DHT22;14583;43.604;1.364;2023-05-10T10:55:18;17.00;99.90
26408;DHT22;14583;43.604;1.364;2023-05-10T10:57:55;16.80;99.90
26408;DHT22;14583;43.604;1.364;2023-05-10T11:05:38;16.70;99.90
26408;DHT22;14583;43.604;1.364;2023-05-10T11:08:15;16.70;99.90
26408;DHT22;14583;43.604;1.364;2023-05-10T11:11:02;16.40;99.90
26408;DHT22;14583;43.604;1.364;2023-05-10T11:13:32;16.30;99.90
26408;DHT22;14583;43.604;1.364;2023-05-10T11:15:59;16.30;99.90
26408;DHT22;14583;43.604;1.364;2023-05-10T11:18:36;16.40;99.90
26408;DHT22;14583;43.604;1.364;2023-05-10T11:21:02;16.40;99.90
26408;DHT22;14583;43.604;1.364;2023-05-10T11:23:48;16.30;99.90
26408;DHT22;14583;43.604;1.364;2023-05-10T11:26:15;16.20;99.90
26408;DHT22;14583;43.604;1.364;2023-05-10T11:28:45;16.20;99.90
26408;DHT22;14583;43.604;1.364;2023-05-10T11:31:13;16.20;99.90
26408;DHT22;14583;43.604;1.364;2023-05-10T11:33:51;16.20;99.90
26408;DHT22;14583;43.604;1.364;2023-05-10T11:36:25;16.30;99.90
26408;DHT22;14583;43.604;1.364;2023-05-10T11:38:51;16.40;99.90
26408;DHT22;14583;43.604;1.364;2023-05-10T11:41:19;16.60;99.90
26408;DHT22;14583;43.604;1.364;2023-05-10T11:43:49;16.80;99.90
26408;DHT22;14583;43.604;1.364;2023-05-10T11:46:15;17.00;99.90
26408;DHT22;14583;43.604;1.364;2023-05-10T11:48:42;16.90;99.90
26408;DHT22;14583;43.604;1.364;2023-05-10T11:51:09;16.80;99.90
26408;DHT22;14583;43.604;1.364;2023-05-10T11:53:35;16.60;99.90
26408;DHT22;14583;43.604;1.364;2023-05-10T11:56:07;16.70;99.90
26408;DHT22;14583;43.604;1.364;2023-05-10T11:58:34;16.80;99.90
26408;DHT22;14583;43.604;1.364;2023-05-10T12:01:00;16.80;99.90
26408;DHT22;14583;43.604;1.364;2023-05-10T12:03:27;17.00;99.90
26408;DHT22;14583;43.604;1.364;2023-05-10T12:05:54;17.00;99.90
26408;DHT22;14583;43.604;1.364;2023-05-10T12:08:25;17.00;99.90
26408;DHT22;14583;43.604;1.364;2023-05-10T12:10:52;16.80;99.90
26408;DHT22;14583;43.604;1.364;2023-05-10T12:13:19;16.90;99.90
26408;DHT22;14583;43.604;1.364;2023-05-10T12:15:46;16.60;99.90
26408;DHT22;14583;43.604;1.364;2023-05-10T12:18:13;16.50;99.90
26408;DHT22;14583;43.604;1.364;2023-05-10T12:20:39;16.40;99.90
26408;DHT22;14583;43.604;1.364;2023-05-10T12:23:07;16.70;99.90
26408;DHT22;14583;43.604;1.364;2023-05-10T12:25:34;16.90;99.90
26408;DHT22;14583;43.604;1.364;2023-05-10T12:28:03;16.90;99.90
26408;DHT22;14583;43.604;1.364;2023-05-10T12:30:31;16.80;99.90
26408;DHT22;14583;43.604;1.364;2023-05-10T12:33:11;17.00;99.90
26408;DHT22;14583;43.604;1.364;2023-05-10T12:35:51;17.10;99.90
26408;DHT22;14583;43.604;1.364;2023-05-10T12:38:38;17.40;99.90
26408;DHT22;14583;43.604;1.364;2023-05-10T12:41:13;17.60;99.90
26408;DHT22;14583;43.604;1.364;2023-05-10T12:43:39;17.50;99.90
26408;DHT22;14583;43.604;1.364;2023-05-10T12:46:10;17.70;99.90
26408;DHT22;14583;43.604;1.364;2023-05-10T12:48:37;17.50;99.90
26408;DHT22;14583;43.604;1.364;2023-05-10T12:51:03;17.60;99.90
26408;DHT22;14583;43.604;1.364;2023-05-10T12:53:29;17.70;99.90
26408;DHT22;14583;43.604;1.364;2023-05-10T12:55:55;17.60;99.90
26408;DHT22;14583;43.604;1.364;2023-05-10T12:58:21;17.90;99.90
26408;DHT22;14583;43.604;1.364;2023-05-10T13:00:47;17.90;99.90
26408;DHT22;14583;43.604;1.364;2023-05-10T13:03:13;18.20;99.90
26408;DHT22;14583;43.604;1.364;2023-05-10T13:05:38;18.20;99.90
26408;DHT22;14583;43.604;1.364;2023-05-10T13:08:04;18.40;99.90
26408;DHT22;14583;43.604;1.364;2023-05-10T13:10:30;18.50;99.90
26408;DHT22;14583;43.604;1.364;2023-05-10T13:13:00;18.40;99.90
26408;DHT22;14583;43.604;1.364;2023-05-10T13:15:26;18.10;99.90
26408;DHT22;14583;43.604;1.364;2023-05-10T13:17:52;18.20;99.90
26408;DHT22;14583;43.604;1.364;2023-05-10T13:20:18;18.30;99.90
26408;DHT22;14583;43.604;1.364;2023-05-10T13:22:44;18.20;99.90
26408;DHT22;14583;43.604;1.364;2023-05-10T13:25:10;18.20;99.90
26408;DHT22;14583;43.604;1.364;2023-05-10T13:27:37;18.40;99.90
26408;DHT22;14583;43.604;1.364;2023-05-10T13:30:03;18.50;99.90
26408;DHT22;14583;43.604;1.364;2023-05-10T13:32:29;18.40;99.90
26408;DHT22;14583;43.604;1.364;2023-05-10T13:34:56;18.40;99.90
26408;DHT22;14583;43.604;1.364;2023-05-10T13:37:22;18.30;99.90
26408;DHT22;14583;43.604;1.364;2023-05-10T13:39:48;18.30;99.90
26408;DHT22;14583;43.604;1.364;2023-05-10T13:42:14;18.20;99.90
26408;DHT22;14583;43.604;1.364;2023-05-10T13:44:39;18.50;99.90
26408;DHT22;14583;43.604;1.364;2023-05-10T13:47:05;19.10;99.90
26408;DHT22;14583;43.604;1.364;2023-05-10T13:49:31;19.20;99.80
26408;DHT22;14583;43.604;1.364;2023-05-10T13:51:56;19.20;99.30
26408;DHT22;14583;43.604;1.364;2023-05-10T13:54:23;18.90;99.20
26408;DHT22;14583;43.604;1.364;2023-05-10T13:56:49;19.00;99.90
26408;DHT22;14583;43.604;1.364;2023-05-10T13:59:14;18.60;99.90
26408;DHT22;14583;43.604;1.364;2023-05-10T14:01:41;18.60;99.90
26408;DHT22;14583;43.604;1.364;2023-05-10T14:04:08;18.20;99.90
26408;DHT22;14583;43.604;1.364;2023-05-10T14:06:36;18.00;99.90
26408;DHT22;14583;43.604;1.364;2023-05-10T14:09:02;17.70;99.90
26408;DHT22;14583;43.604;1.364;2023-05-10T14:11:28;17.60;99.90
26408;DHT22;14583;43.604;1.364;2023-05-10T14:13:54;17.60;99.90
26408;DHT22;14583;43.604;1.364;2023-05-10T14:16:20;17.50;99.90
26408;DHT22;14583;43.604;1.364;2023-05-10T14:18:46;17.40;99.90
26408;DHT22;14583;43.604;1.364;2023-05-10T14:21:12;17.40;99.90
26408;DHT22;14583;43.604;1.364;2023-05-10T14:23:38;17.30;99.90
26408;DHT22;14583;43.604;1.364;2023-05-10T14:26:03;17.50;99.90
26408;DHT22;14583;43.604;1.364;2023-05-10T14:28:29;17.70;99.90
26408;DHT22;14583;43.604;1.364;2023-05-10T14:30:55;17.70;99.90
26408;DHT22;14583;43.604;1.364;2023-05-10T14:33:20;17.50;99.90
26408;DHT22;14583;43.604;1.364;2023-05-10T14:35:46;17.50;99.90
26408;DHT22;14583;43.604;1.364;2023-05-10T14:38:12;17.60;99.90
26408;DHT22;14583;43.604;1.364;2023-05-10T14:40:38;17.60;99.90
26408;DHT22;14583;43.604;1.364;2023-05-10T14:43:04;17.80;99.90
26408;DHT22;14583;43.604;1.364;2023-05-10T14:45:29;18.20;99.90
26408;DHT22;14583;43.604;1.364;2023-05-10T14:47:55;18.30;99.90
26408;DHT22;14583;43.604;1.364;2023-05-10T14:50:21;18.70;99.90
26408;DHT22;14583;43.604;1.364;2023-05-10T14:52:46;18.90;99.90
26408;DHT22;14583;43.604;1.364;2023-05-10T14:55:12;19.00;99.90
26408;DHT22;14583;43.604;1.364;2023-05-10T14:57:38;18.90;99.90
26408;DHT22;14583;43.604;1.364;2023-05-10T15:00:04;18.90;99.90
26408;DHT22;14583;43.604;1.364;2023-05-10T15:02:31;18.80;99.90
26408;DHT22;14583;43.604;1.364;2023-05-10T15:04:57;18.90;99.90
26408;DHT22;14583;43.604;1.364;2023-05-10T15:07:23;18.70;99.90
26408;DHT22;14583;43.604;1.364;2023-05-10T15:09:50;18.50;99.90
26408;DHT22;14583;43.604;1.364;2023-05-10T15:12:17;18.60;99.90
26408;DHT22;14583;43.604;1.364;2023-05-10T15:14:43;18.70;99.90
26408;DHT22;14583;43.604;1.364;2023-05-10T15:17:08;18.40;99.90
26408;DHT22;14583;43.604;1.364;2023-05-10T15:19:34;18.00;99.90
26408;DHT22;14583;43.604;1.364;2023-05-10T15:22:00;17.80;99.90
26408;DHT22;14583;43.604;1.364;2023-05-10T15:24:25;17.70;99.90
26408;DHT22;14583;43.604;1.364;2023-05-10T15:26:51;17.40;99.90
26408;DHT22;14583;43.604;1.364;2023-05-10T15:29:16;17.30;99.90
26408;DHT22;14583;43.604;1.364;2023-05-10T15:31:49;17.20;99.90
26408;DHT22;14583;43.604;1.364;2023-05-10T15:34:16;17.30;99.90
26408;DHT22;14583;43.604;1.364;2023-05-10T15:36:42;17.20;99.90
26408;DHT22;14583;43.604;1.364;2023-05-10T15:39:07;17.30;99.90
26408;DHT22;14583;43.604;1.364;2023-05-10T15:41:35;17.40;99.90
26408;DHT22;14583;43.604;1.364;2023-05-10T15:44:00;17.80;99.90
26408;DHT22;14583;43.604;1.364;2023-05-10T15:46:27;18.50;99.90
26408;DHT22;14583;43.604;1.364;2023-05-10T15:48:53;18.90;99.90
26408;DHT22;14583;43.604;1.364;2023-05-10T15:51:18;19.50;99.90
26408;DHT22;14583;43.604;1.364;2023-05-10T15:53:44;20.50;99.90
26408;DHT22;14583;43.604;1.364;2023-05-10T15:56:10;21.80;99.90
26408;DHT22;14583;43.604;1.364;2023-05-10T15:58:37;22.50;99.90
26408;DHT22;14583;43.604;1.364;2023-05-10T16:01:03;27.20;97.50
26408;DHT22;14583;43.604;1.364;2023-05-10T16:03:30;30.90;89.40
26408;DHT22;14583;43.604;1.364;2023-05-10T16:05:56;30.40;86.60
26408;DHT22;14583;43.604;1.364;2023-05-10T16:08:22;33.20;79.30